sensor_id;sensor_type;location;lat;lon;timestamp;pressure;altitude;pressure_sealevel;temperature;humidity
14902;BME280;7542;49.078;9.194;2023-04-26T00:00:12;98657.56;;;28.66;31.61
14902;BME280;7542;49.078;9.194;2023-04-26T00:01:16;98658.63;;;28.65;31.86
14902;BME280;7542;49.078;9.194;2023-04-26T00:02:18;98656.78;;;28.66;31.65
14902;BME280;7542;49.078;9.194;2023-04-26T00:03:20;98662.69;;;28.68;31.56
14902;BME280;7542;49.078;9.194;2023-04-26T00:04:24;98656.22;;;28.64;31.71
14902;BME280;7542;49.078;9.194;2023-04-26T00:05:28;98658.13;;;28.63;31.72
14902;BME280;7542;49.078;9.194;2023-04-26T00:06:30;98654.63;;;28.63;31.69
14902;BME280;7542;49.078;9.194;2023-04-26T00:07:32;98657.84;;;28.65;31.65
14902;BME280;7542;49.078;9.194;2023-04-26T00:08:36;98659.22;;;28.62;31.72
14902;BME280;7542;49.078;9.194;2023-04-26T00:09:39;98662.72;;;28.63;31.54
14902;BME280;7542;49.078;9.194;2023-04-26T00:10:43;98658.41;;;28.62;31.62
14902;BME280;7542;49.078;9.194;2023-04-26T00:11:48;98661.13;;;28.62;31.58
14902;BME280;7542;49.078;9.194;2023-04-26T00:12:51;98653.03;;;28.62;31.50
14902;BME280;7542;49.078;9.194;2023-04-26T00:13:54;98655.72;;;28.62;31.59
14902;BME280;7542;49.078;9.194;2023-04-26T00:14:58;98659.78;;;28.59;31.65
14902;BME280;7542;49.078;9.194;2023-04-26T00:16:06;98660.59;;;28.59;31.42
14902;BME280;7542;49.078;9.194;2023-04-26T00:17:08;98656.28;;;28.58;31.88
14902;BME280;7542;49.078;9.194;2023-04-26T00:18:11;98659.78;;;28.59;31.53
14902;BME280;7542;49.078;9.194;2023-04-26T00:19:13;98657.09;;;28.59;31.45
14902;BME280;7542;49.078;9.194;2023-04-26T00:20:18;98660.88;;;28.58;31.78
14902;BME280;7542;49.078;9.194;2023-04-26T00:21:20;98661.69;;;28.58;31.67
14902;BME280;7542;49.078;9.194;2023-04-26T00:22:24;98662.78;;;28.57;31.62
14902;BME280;7542;49.078;9.194;2023-04-26T00:23:28;98664.38;;;28.58;31.67
14902;BME280;7542;49.078;9.194;2023-04-26T00:24:32;98669.28;;;28.56;31.56
14902;BME280;7542;49.078;9.194;2023-04-26T00:25:36;98663.88;;;28.56;31.57
14902;BME280;7542;49.078;9.194;2023-04-26T00:26:40;98663.88;;;28.56;31.40
14902;BME280;7542;49.078;9.194;2023-04-26T00:27:43;98667.66;;;28.55;31.53
14902;BME280;7542;49.078;9.194;2023-04-26T00:28:47;98664.16;;;28.55;31.57
14902;BME280;7542;49.078;9.194;2023-04-26T00:29:50;98658.78;;;28.55;31.43
14902;BME280;7542;49.078;9.194;2023-04-26T00:30:52;98661.72;;;28.53;31.65
14902;BME280;7542;49.078;9.194;2023-04-26T00:31:58;98659.03;;;28.53;31.56
14902;BME280;7542;49.078;9.194;2023-04-26T00:33:02;98662.00;;;28.52;31.52
14902;BME280;7542;49.078;9.194;2023-04-26T00:34:06;98657.41;;;28.52;31.46
14902;BME280;7542;49.078;9.194;2023-04-26T00:35:09;98663.91;;;28.51;31.51
14902;BME280;7542;49.078;9.194;2023-04-26T00:36:13;98658.50;;;28.51;31.25
14902;BME280;7542;49.078;9.194;2023-04-26T00:37:20;98660.94;;;28.53;31.19
14902;BME280;7542;49.078;9.194;2023-04-26T00:38:24;98666.91;;;28.50;31.51
14902;BME280;7542;49.078;9.194;2023-04-26T00:39:26;98659.91;;;28.49;31.44
14902;BME280;7542;49.078;9.194;2023-04-26T00:40:30;98662.31;;;28.50;31.32
14902;BME280;7542;49.078;9.194;2023-04-26T00:41:35;98659.91;;;28.49;31.60
14902;BME280;7542;49.078;9.194;2023-04-26T00:42:40;98652.59;;;28.49;31.45
14902;BME280;7542;49.078;9.194;2023-04-26T00:43:43;98659.91;;;28.49;31.57
14902;BME280;7542;49.078;9.194;2023-04-26T00:44:47;98665.28;;;28.49;31.54
14902;BME280;7542;49.078;9.194;2023-04-26T00:45:51;98661.78;;;28.48;31.62
14902;BME280;7542;49.078;9.194;2023-04-26T00:46:56;98662.88;;;28.47;31.61
14902;BME280;7542;49.078;9.194;2023-04-26T00:48:01;98665.59;;;28.47;31.34
14902;BME280;7542;49.078;9.194;2023-04-26T00:49:04;98665.88;;;28.46;31.07
14902;BME280;7542;49.078;9.194;2023-04-26T00:50:07;98666.97;;;28.45;31.55
14902;BME280;7542;49.078;9.194;2023-04-26T00:51:10;98663.47;;;28.44;31.40
14902;BME280;7542;49.078;9.194;2023-04-26T00:52:14;98668.31;;;28.42;31.54
14902;BME280;7542;49.078;9.194;2023-04-26T00:53:17;98667.22;;;28.43;31.43
14902;BME280;7542;49.078;9.194;2023-04-26T00:54:21;98666.41;;;28.43;31.44
14902;BME280;7542;49.078;9.194;2023-04-26T00:55:24;98667.78;;;28.40;31.44
14902;BME280;7542;49.078;9.194;2023-04-26T00:56:30;98667.50;;;28.42;31.51
14902;BME280;7542;49.078;9.194;2023-04-26T00:57:34;98669.41;;;28.41;31.38
14902;BME280;7542;49.078;9.194;2023-04-26T00:58:37;98671.81;;;28.43;31.46
14902;BME280;7542;49.078;9.194;2023-04-26T00:59:39;98671.28;;;28.41;31.47
14902;BME280;7542;49.078;9.194;2023-04-26T01:00:43;98675.88;;;28.40;31.34
14902;BME280;7542;49.078;9.194;2023-04-26T01:01:46;98670.78;;;28.39;31.42
14902;BME280;7542;49.078;9.194;2023-04-26T01:02:49;98669.69;;;28.40;31.43
14902;BME280;7542;49.078;9.194;2023-04-26T01:03:53;98669.97;;;28.38;31.18
14902;BME280;7542;49.078;9.194;2023-04-26T01:04:56;98675.94;;;28.35;31.56
14902;BME280;7542;49.078;9.194;2023-04-26T01:06:00;98677.56;;;28.36;31.56
14902;BME280;7542;49.078;9.194;2023-04-26T01:07:03;98674.34;;;28.34;31.42
14902;BME280;7542;49.078;9.194;2023-04-26T01:08:07;98676.47;;;28.37;31.66
14902;BME280;7542;49.078;9.194;2023-04-26T01:09:10;98681.63;;;28.34;31.46
14902;BME280;7542;49.078;9.194;2023-04-26T01:10:17;98678.66;;;28.35;31.45
14902;BME280;7542;49.078;9.194;2023-04-26T01:11:21;98682.44;;;28.34;31.59
14902;BME280;7542;49.078;9.194;2023-04-26T01:12:25;98673.78;;;28.32;31.45
14902;BME280;7542;49.078;9.194;2023-04-26T01:13:31;98674.34;;;28.34;31.59
14902;BME280;7542;49.078;9.194;2023-04-26T01:14:35;98678.94;;;28.34;31.20
14902;BME280;7542;49.078;9.194;2023-04-26T01:15:47;98675.66;;;28.37;31.63
14902;BME280;7542;49.078;9.194;2023-04-26T01:16:50;98672.19;;;28.31;31.38
14902;BME280;7542;49.078;9.194;2023-04-26T01:17:55;98676.50;;;28.32;31.44
14902;BME280;7542;49.078;9.194;2023-04-26T01:19:07;98670.25;;;28.37;31.36
14902;BME280;7542;49.078;9.194;2023-04-26T01:20:14;98674.59;;;28.33;31.40
14902;BME280;7542;49.078;9.194;2023-04-26T01:21:23;98673.78;;;28.32;31.47
14902;BME280;7542;49.078;9.194;2023-04-26T01:22:25;98660.59;;;28.30;31.43
14902;BME280;7542;49.078;9.194;2023-04-26T01:23:30;98664.66;;;28.28;31.40
14902;BME280;7542;49.078;9.194;2023-04-26T01:24:35;98663.03;;;28.27;31.47
14902;BME280;7542;49.078;9.194;2023-04-26T01:25:38;98668.72;;;28.25;31.64
14902;BME280;7542;49.078;9.194;2023-04-26T01:26:41;98668.72;;;28.25;31.47
14902;BME280;7542;49.078;9.194;2023-04-26T01:27:48;98663.31;;;28.25;31.47
14902;BME280;7542;49.078;9.194;2023-04-26T01:28:51;98670.91;;;28.23;31.43
14902;BME280;7542;49.078;9.194;2023-04-26T01:29:55;98671.69;;;28.24;31.49
14902;BME280;7542;49.078;9.194;2023-04-26T01:30:58;98662.81;;;28.23;31.29
14902;BME280;7542;49.078;9.194;2023-04-26T01:32:00;98668.47;;;28.22;31.51
14902;BME280;7542;49.078;9.194;2023-04-26T01:33:03;98665.25;;;28.20;31.52
14902;BME280;7542;49.078;9.194;2023-04-26T01:34:07;98672.25;;;28.21;31.33
14902;BME280;7542;49.078;9.194;2023-04-26T01:35:08;98672.25;;;28.21;31.51
14902;BME280;7542;49.078;9.194;2023-04-26T01:36:10;98672.53;;;28.19;31.55
14902;BME280;7542;49.078;9.194;2023-04-26T01:37:14;98674.41;;;28.19;31.37
14902;BME280;7542;49.078;9.194;2023-04-26T01:38:17;98674.41;;;28.19;31.48
14902;BME280;7542;49.078;9.194;2023-04-26T01:39:21;98673.91;;;28.17;31.30
14902;BME280;7542;49.078;9.194;2023-04-26T01:40:24;98672.81;;;28.18;31.54
14902;BME280;7542;49.078;9.194;2023-04-26T01:41:27;98673.63;;;28.18;31.61
14902;BME280;7542;49.078;9.194;2023-04-26T01:42:31;98671.72;;;28.19;31.49
14902;BME280;7542;49.078;9.194;2023-04-26T01:43:34;98671.22;;;28.17;31.52
14902;BME280;7542;49.078;9.194;2023-04-26T01:44:36;98672.81;;;28.18;31.43
14902;BME280;7542;49.078;9.194;2023-04-26T01:45:40;98671.22;;;28.17;31.50
14902;BME280;7542;49.078;9.194;2023-04-26T01:46:43;98670.13;;;28.18;31.48
14902;BME280;7542;49.078;9.194;2023-04-26T01:47:45;98665.81;;;28.17;31.75
14902;BME280;7542;49.078;9.194;2023-04-26T01:48:48;98666.09;;;28.15;31.49
14902;BME280;7542;49.078;9.194;2023-04-26T01:49:52;98666.91;;;28.16;31.39
14902;BME280;7542;49.078;9.194;2023-04-26T01:50:55;98658.31;;;28.14;31.46
14902;BME280;7542;49.078;9.194;2023-04-26T01:52:01;98655.59;;;28.14;31.38
14902;BME280;7542;49.078;9.194;2023-04-26T01:53:03;98657.50;;;28.13;31.41
14902;BME280;7542;49.078;9.194;2023-04-26T01:54:06;98668.28;;;28.13;31.45
14902;BME280;7542;49.078;9.194;2023-04-26T01:55:09;98664.50;;;28.14;31.41
14902;BME280;7542;49.078;9.194;2023-04-26T01:56:11;98662.09;;;28.13;31.41
14902;BME280;7542;49.078;9.194;2023-04-26T01:57:15;98666.69;;;28.12;31.29
14902;BME280;7542;49.078;9.194;2023-04-26T01:58:19;98662.34;;;28.11;31.45
14902;BME280;7542;49.078;9.194;2023-04-26T01:59:22;98662.34;;;28.11;31.10
14902;BME280;7542;49.078;9.194;2023-04-26T02:00:24;98666.41;;;28.09;31.62
14902;BME280;7542;49.078;9.194;2023-04-26T02:01:28;98666.13;;;28.10;31.37
14902;BME280;7542;49.078;9.194;2023-04-26T02:02:30;98668.03;;;28.10;31.56
14902;BME280;7542;49.078;9.194;2023-04-26T02:03:35;98662.91;;;28.08;31.48
14902;BME280;7542;49.078;9.194;2023-04-26T02:04:38;98664.53;;;28.09;31.34
14902;BME280;7542;49.078;9.194;2023-04-26T02:05:41;98663.19;;;28.07;31.36
14902;BME280;7542;49.078;9.194;2023-04-26T02:06:43;98661.03;;;28.09;31.37
14902;BME280;7542;49.078;9.194;2023-04-26T02:07:45;98665.91;;;28.07;31.30
14902;BME280;7542;49.078;9.194;2023-04-26T02:08:48;98662.41;;;28.06;31.47
14902;BME280;7542;49.078;9.194;2023-04-26T02:09:52;98659.69;;;28.06;31.47
14902;BME280;7542;49.078;9.194;2023-04-26T02:10:56;98661.88;;;28.04;31.41
14902;BME280;7542;49.078;9.194;2023-04-26T02:11:59;98657.28;;;28.05;31.42
14902;BME280;7542;49.078;9.194;2023-04-26T02:13:01;98664.56;;;28.04;31.38
14902;BME280;7542;49.078;9.194;2023-04-26T02:14:03;98662.97;;;28.03;31.33
14902;BME280;7542;49.078;9.194;2023-04-26T02:15:07;98665.66;;;28.03;31.39
14902;BME280;7542;49.078;9.194;2023-04-26T02:16:11;98665.66;;;28.03;31.49
14902;BME280;7542;49.078;9.194;2023-04-26T02:17:16;98661.06;;;28.04;31.56
14902;BME280;7542;49.078;9.194;2023-04-26T02:18:20;98662.16;;;28.02;31.48
14902;BME280;7542;49.078;9.194;2023-04-26T02:19:23;98667.56;;;28.02;31.43
14902;BME280;7542;49.078;9.194;2023-04-26T02:20:26;98661.91;;;27.99;31.46
14902;BME280;7542;49.078;9.194;2023-04-26T02:21:29;98664.59;;;27.99;31.46
14902;BME280;7542;49.078;9.194;2023-04-26T02:22:32;98664.34;;;28.00;31.56
14902;BME280;7542;49.078;9.194;2023-04-26T02:23:35;98660.00;;;27.99;31.49
14902;BME280;7542;49.078;9.194;2023-04-26T02:24:37;98666.50;;;27.98;31.58
14902;BME280;7542;49.078;9.194;2023-04-26T02:25:40;98666.78;;;27.97;31.52
14902;BME280;7542;49.078;9.194;2023-04-26T02:26:43;98664.38;;;27.95;31.45
14902;BME280;7542;49.078;9.194;2023-04-26T02:27:45;98671.38;;;27.96;31.55
14902;BME280;7542;49.078;9.194;2023-04-26T02:28:49;98667.06;;;27.95;31.50
14902;BME280;7542;49.078;9.194;2023-04-26T02:29:52;98665.97;;;27.96;31.45
14902;BME280;7542;49.078;9.194;2023-04-26T02:30:55;98658.97;;;27.95;31.36
14902;BME280;7542;49.078;9.194;2023-04-26T02:32:01;98669.75;;;27.95;31.83
14902;BME280;7542;49.078;9.194;2023-04-26T02:33:04;98665.47;;;27.94;31.56
14902;BME280;7542;49.078;9.194;2023-04-26T02:34:06;98659.53;;;27.92;31.49
14902;BME280;7542;49.078;9.194;2023-04-26T02:35:09;98658.47;;;27.93;31.39
14902;BME280;7542;49.078;9.194;2023-04-26T02:36:11;98665.47;;;27.94;31.46
14902;BME280;7542;49.078;9.194;2023-04-26T02:37:13;98667.63;;;27.92;31.47
14902;BME280;7542;49.078;9.194;2023-04-26T02:38:16;98663.03;;;27.93;31.47
14902;BME280;7542;49.078;9.194;2023-04-26T02:39:19;98667.63;;;27.92;31.52
14902;BME280;7542;49.078;9.194;2023-04-26T02:40:22;98668.72;;;27.91;31.44
14902;BME280;7542;49.078;9.194;2023-04-26T02:41:25;98669.81;;;27.90;31.81
14902;BME280;7542;49.078;9.194;2023-04-26T02:42:27;98667.13;;;27.90;31.50
14902;BME280;7542;49.078;9.194;2023-04-26T02:43:30;98668.72;;;27.91;31.45
14902;BME280;7542;49.078;9.194;2023-04-26T02:44:32;98672.22;;;27.92;31.75
14902;BME280;7542;49.078;9.194;2023-04-26T02:45:40;98670.84;;;27.94;31.47
14902;BME280;7542;49.078;9.194;2023-04-26T02:46:42;98674.13;;;27.91;31.32
14902;BME280;7542;49.078;9.194;2023-04-26T02:47:46;98670.88;;;27.89;31.60
14902;BME280;7542;49.078;9.194;2023-04-26T02:48:48;98664.97;;;27.87;31.48
14902;BME280;7542;49.078;9.194;2023-04-26T02:49:51;98664.16;;;27.87;31.52
14902;BME280;7542;49.078;9.194;2023-04-26T02:50:54;98673.03;;;27.87;31.59
14902;BME280;7542;49.078;9.194;2023-04-26T02:51:56;98677.34;;;27.88;31.46
14902;BME280;7542;49.078;9.194;2023-04-26T02:52:59;98673.03;;;27.87;31.48
14902;BME280;7542;49.078;9.194;2023-04-26T02:54:01;98667.94;;;27.86;31.39
14902;BME280;7542;49.078;9.194;2023-04-26T02:55:08;98673.84;;;27.88;31.41
14902;BME280;7542;49.078;9.194;2023-04-26T02:56:11;98668.75;;;27.86;31.55
14902;BME280;7542;49.078;9.194;2023-04-26T02:57:14;98674.13;;;27.86;31.49
14902;BME280;7542;49.078;9.194;2023-04-26T02:58:17;98667.94;;;27.86;31.44
14902;BME280;7542;49.078;9.194;2023-04-26T02:59:19;98671.44;;;27.86;31.51
14902;BME280;7542;49.078;9.194;2023-04-26T03:00:22;98672.53;;;27.85;31.59
14902;BME280;7542;49.078;9.194;2023-04-26T03:01:25;98671.72;;;27.85;31.43
14902;BME280;7542;49.078;9.194;2023-04-26T03:02:28;98668.50;;;27.83;31.67
14902;BME280;7542;49.078;9.194;2023-04-26T03:03:31;98671.47;;;27.81;31.62
14902;BME280;7542;49.078;9.194;2023-04-26T03:04:35;98667.69;;;27.82;31.59
14902;BME280;7542;49.078;9.194;2023-04-26T03:05:38;98669.31;;;27.83;31.57
14902;BME280;7542;49.078;9.194;2023-04-26T03:06:41;98672.28;;;27.82;31.45
14902;BME280;7542;49.078;9.194;2023-04-26T03:07:45;98660.72;;;27.81;31.42
14902;BME280;7542;49.078;9.194;2023-04-26T03:08:47;98665.56;;;27.79;31.42
14902;BME280;7542;49.078;9.194;2023-04-26T03:09:51;98664.50;;;27.80;31.53
14902;BME280;7542;49.078;9.194;2023-04-26T03:10:53;98665.56;;;27.79;31.53
14902;BME280;7542;49.078;9.194;2023-04-26T03:11:57;98668.00;;;27.81;31.47
14902;BME280;7542;49.078;9.194;2023-04-26T03:12:59;98665.56;;;27.79;31.38
14902;BME280;7542;49.078;9.194;2023-04-26T03:14:03;98671.78;;;27.80;31.55
14902;BME280;7542;49.078;9.194;2023-04-26T03:15:06;98669.31;;;27.78;31.53
14902;BME280;7542;49.078;9.194;2023-04-26T03:16:10;98663.94;;;27.78;31.46
14902;BME280;7542;49.078;9.194;2023-04-26T03:17:12;98665.84;;;27.78;31.80
14902;BME280;7542;49.078;9.194;2023-04-26T03:18:17;98666.91;;;27.77;31.44
14902;BME280;7542;49.078;9.194;2023-04-26T03:19:20;98670.41;;;27.77;31.42
14902;BME280;7542;49.078;9.194;2023-04-26T03:20:23;98675.28;;;27.75;31.54
14902;BME280;7542;49.078;9.194;2023-04-26T03:21:27;98669.63;;;27.77;31.59
14902;BME280;7542;49.078;9.194;2023-04-26T03:22:29;98667.19;;;27.75;31.48
14902;BME280;7542;49.078;9.194;2023-04-26T03:23:32;98666.13;;;27.76;31.54
14902;BME280;7542;49.078;9.194;2023-04-26T03:24:35;98676.38;;;27.74;31.56
14902;BME280;7542;49.078;9.194;2023-04-26T03:25:39;98672.59;;;27.75;31.49
14902;BME280;7542;49.078;9.194;2023-04-26T03:26:41;98667.47;;;27.73;31.48
14902;BME280;7542;49.078;9.194;2023-04-26T03:27:44;98673.69;;;27.74;31.55
14902;BME280;7542;49.078;9.194;2023-04-26T03:28:47;98674.75;;;27.73;31.53
14902;BME280;7542;49.078;9.194;2023-04-26T03:29:50;98677.75;;;27.71;31.59
14902;BME280;7542;49.078;9.194;2023-04-26T03:30:53;98671.25;;;27.72;31.56
14902;BME280;7542;49.078;9.194;2023-04-26T03:31:56;98675.84;;;27.72;31.61
14902;BME280;7542;49.078;9.194;2023-04-26T03:32:59;98677.75;;;27.71;31.37
14902;BME280;7542;49.078;9.194;2023-04-26T03:34:01;98678.53;;;27.72;31.54
14902;BME280;7542;49.078;9.194;2023-04-26T03:35:04;98688.22;;;27.73;31.54
14902;BME280;7542;49.078;9.194;2023-04-26T03:36:07;98685.03;;;27.71;31.47
14902;BME280;7542;49.078;9.194;2023-04-26T03:37:11;98687.72;;;27.71;31.47
14902;BME280;7542;49.078;9.194;2023-04-26T03:38:13;98686.09;;;27.70;31.42
14902;BME280;7542;49.078;9.194;2023-04-26T03:39:16;98681.81;;;27.69;31.38
14902;BME280;7542;49.078;9.194;2023-04-26T03:40:19;98671.03;;;27.69;31.58
14902;BME280;7542;49.078;9.194;2023-04-26T03:41:23;98681.00;;;27.68;31.60
14902;BME280;7542;49.078;9.194;2023-04-26T03:42:26;98681.81;;;27.69;31.46
14902;BME280;7542;49.078;9.194;2023-04-26T03:43:28;98677.50;;;27.68;31.57
14902;BME280;7542;49.078;9.194;2023-04-26T03:44:31;98676.94;;;27.66;31.58
14902;BME280;7542;49.078;9.194;2023-04-26T03:45:35;98683.16;;;27.66;31.52
14902;BME280;7542;49.078;9.194;2023-04-26T03:46:37;98678.56;;;27.67;31.52
14902;BME280;7542;49.078;9.194;2023-04-26T03:47:40;98686.63;;;27.67;31.48
14902;BME280;7542;49.078;9.194;2023-04-26T03:48:44;98680.72;;;27.65;31.51
14902;BME280;7542;49.078;9.194;2023-04-26T03:49:47;98678.84;;;27.65;31.62
14902;BME280;7542;49.078;9.194;2023-04-26T03:50:50;98676.41;;;27.64;31.40
14902;BME280;7542;49.078;9.194;2023-04-26T03:51:51;98669.66;;;27.66;31.48
14902;BME280;7542;49.078;9.194;2023-04-26T03:52:55;98680.72;;;27.65;31.39
14902;BME280;7542;49.078;9.194;2023-04-26T03:53:58;98677.19;;;27.64;31.51
14902;BME280;7542;49.078;9.194;2023-04-26T03:55:00;98679.91;;;27.64;31.41
14902;BME280;7542;49.078;9.194;2023-04-26T03:56:02;98675.59;;;27.63;31.73
14902;BME280;7542;49.078;9.194;2023-04-26T03:57:04;98678.28;;;27.63;31.57
14902;BME280;7542;49.078;9.194;2023-04-26T03:58:06;98679.09;;;27.64;31.36
14902;BME280;7542;49.078;9.194;2023-04-26T03:59:09;98676.69;;;27.62;31.41
14902;BME280;7542;49.078;9.194;2023-04-26T04:00:13;98679.09;;;27.64;31.41
14902;BME280;7542;49.078;9.194;2023-04-26T04:01:19;98676.69;;;27.62;31.38
14902;BME280;7542;49.078;9.194;2023-04-26T04:02:22;98677.78;;;27.61;31.54
14902;BME280;7542;49.078;9.194;2023-04-26T04:03:24;98672.38;;;27.61;31.39
14902;BME280;7542;49.078;9.194;2023-04-26T04:04:27;98680.75;;;27.60;31.45
14902;BME280;7542;49.078;9.194;2023-04-26T04:05:30;98677.25;;;27.59;31.46
14902;BME280;7542;49.078;9.194;2023-04-26T04:06:32;98679.13;;;27.59;31.28
14902;BME280;7542;49.078;9.194;2023-04-26T04:07:34;98681.28;;;27.57;31.45
14902;BME280;7542;49.078;9.194;2023-04-26T04:08:38;98679.41;;;27.57;31.44
14902;BME280;7542;49.078;9.194;2023-04-26T04:09:42;98677.53;;;27.58;31.54
14902;BME280;7542;49.078;9.194;2023-04-26T04:10:44;98680.22;;;27.58;31.31
14902;BME280;7542;49.078;9.194;2023-04-26T04:11:48;98670.50;;;27.57;31.47
14902;BME280;7542;49.078;9.194;2023-04-26T04:12:51;98679.41;;;27.57;31.37
14902;BME280;7542;49.078;9.194;2023-04-26T04:13:55;98673.47;;;27.55;31.41
14902;BME280;7542;49.078;9.194;2023-04-26T04:14:58;98681.84;;;27.59;31.27
14902;BME280;7542;49.078;9.194;2023-04-26T04:16:00;98680.22;;;27.58;31.38
14902;BME280;7542;49.078;9.194;2023-04-26T04:17:02;98680.47;;;27.56;31.25
14902;BME280;7542;49.078;9.194;2023-04-26T04:18:05;98681.03;;;27.58;31.56
14902;BME280;7542;49.078;9.194;2023-04-26T04:19:08;98683.16;;;27.56;31.30
14902;BME280;7542;49.078;9.194;2023-04-26T04:20:12;98683.97;;;27.57;31.35
14902;BME280;7542;49.078;9.194;2023-04-26T04:21:15;98672.16;;;27.58;31.37
14902;BME280;7542;49.078;9.194;2023-04-26T04:22:17;98675.91;;;27.57;30.92
14902;BME280;7542;49.078;9.194;2023-04-26T04:23:21;98667.81;;;27.57;31.29
14902;BME280;7542;49.078;9.194;2023-04-26T04:24:24;98676.44;;;27.59;31.30
14902;BME280;7542;49.078;9.194;2023-04-26T04:25:26;98670.25;;;27.58;31.26
14902;BME280;7542;49.078;9.194;2023-04-26T04:26:31;98671.06;;;27.59;31.43
14902;BME280;7542;49.078;9.194;2023-04-26T04:27:33;98675.34;;;27.60;31.25
14902;BME280;7542;49.078;9.194;2023-04-26T04:28:35;98677.25;;;27.59;31.36
14902;BME280;7542;49.078;9.194;2023-04-26T04:29:39;98679.13;;;27.59;31.18
14902;BME280;7542;49.078;9.194;2023-04-26T04:30:42;98674.56;;;27.59;31.18
14902;BME280;7542;49.078;9.194;2023-04-26T04:31:45;98678.06;;;27.60;31.11
14902;BME280;7542;49.078;9.194;2023-04-26T04:32:48;98684.25;;;27.60;31.31
14902;BME280;7542;49.078;9.194;2023-04-26T04:33:50;98680.22;;;27.58;31.31
14902;BME280;7542;49.078;9.194;2023-04-26T04:34:55;98683.44;;;27.60;31.15
14902;BME280;7542;49.078;9.194;2023-04-26T04:35:57;98682.63;;;27.59;31.16
14902;BME280;7542;49.078;9.194;2023-04-26T04:37:01;98674.28;;;27.56;31.27
14902;BME280;7542;49.078;9.194;2023-04-26T04:38:06;98690.44;;;27.61;31.14
14902;BME280;7542;49.078;9.194;2023-04-26T04:39:09;98680.75;;;27.60;31.12
14902;BME280;7542;49.078;9.194;2023-04-26T04:40:17;98688.81;;;27.60;31.28
14902;BME280;7542;49.078;9.194;2023-04-26T04:41:20;98690.44;;;27.61;31.30
14902;BME280;7542;49.078;9.194;2023-04-26T04:42:24;98690.72;;;27.59;31.17
14902;BME280;7542;49.078;9.194;2023-04-26T04:43:29;98686.66;;;27.62;31.25
14902;BME280;7542;49.078;9.194;2023-04-26T04:44:31;98682.34;;;27.61;31.30
14902;BME280;7542;49.078;9.194;2023-04-26T04:45:34;98688.81;;;27.60;31.18
14902;BME280;7542;49.078;9.194;2023-04-26T04:46:38;98690.44;;;27.61;31.29
14902;BME280;7542;49.078;9.194;2023-04-26T04:47:42;98685.84;;;27.61;31.44
14902;BME280;7542;49.078;9.194;2023-04-26T04:48:46;98682.88;;;27.63;31.10
14902;BME280;7542;49.078;9.194;2023-04-26T04:49:50;98693.41;;;27.59;31.18
14902;BME280;7542;49.078;9.194;2023-04-26T04:50:54;98689.91;;;27.59;31.26
14902;BME280;7542;49.078;9.194;2023-04-26T04:51:57;98690.72;;;27.59;31.17
14902;BME280;7542;49.078;9.194;2023-04-26T04:52:59;98690.72;;;27.59;31.27
14902;BME280;7542;49.078;9.194;2023-04-26T04:54:16;98693.66;;;27.68;31.26
14902;BME280;7542;49.078;9.194;2023-04-26T04:55:19;98697.44;;;27.62;31.20
14902;BME280;7542;49.078;9.194;2023-04-26T04:56:22;98698.50;;;27.61;31.36
14902;BME280;7542;49.078;9.194;2023-04-26T04:57:24;98691.53;;;27.60;31.40
14902;BME280;7542;49.078;9.194;2023-04-26T04:58:27;98703.91;;;27.61;31.14
14902;BME280;7542;49.078;9.194;2023-04-26T04:59:30;98698.28;;;27.57;31.44
14902;BME280;7542;49.078;9.194;2023-04-26T05:00:34;98702.28;;;27.60;31.27
14902;BME280;7542;49.078;9.194;2023-04-26T05:01:37;98702.56;;;27.58;31.48
14902;BME280;7542;49.078;9.194;2023-04-26T05:02:42;98697.72;;;27.60;31.34
14902;BME280;7542;49.078;9.194;2023-04-26T05:03:45;98700.69;;;27.59;31.20
14902;BME280;7542;49.078;9.194;2023-04-26T05:04:51;98706.06;;;27.59;31.39
14902;BME280;7542;49.078;9.194;2023-04-26T05:05:53;98711.75;;;27.57;31.36
14902;BME280;7542;49.078;9.194;2023-04-26T05:06:56;98707.97;;;27.58;31.27
14902;BME280;7542;49.078;9.194;2023-04-26T05:07:59;98715.25;;;27.58;31.27
14902;BME280;7542;49.078;9.194;2023-04-26T05:09:02;98704.72;;;27.56;31.27
14902;BME280;7542;49.078;9.194;2023-04-26T05:10:07;98719.00;;;27.57;31.46
14902;BME280;7542;49.078;9.194;2023-04-26T05:11:10;98715.25;;;27.58;31.55
14902;BME280;7542;49.078;9.194;2023-04-26T05:12:12;98711.75;;;27.57;30.96
14902;BME280;7542;49.078;9.194;2023-04-26T05:13:14;98716.84;;;27.59;31.50
14902;BME280;7542;49.078;9.194;2023-04-26T05:14:18;98723.31;;;27.58;31.18
14902;BME280;7542;49.078;9.194;2023-04-26T05:15:20;98719.28;;;27.55;31.47
14902;BME280;7542;49.078;9.194;2023-04-26T05:16:22;98721.69;;;27.57;31.36
14902;BME280;7542;49.078;9.194;2023-04-26T05:17:26;98719.00;;;27.57;31.28
14902;BME280;7542;49.078;9.194;2023-04-26T05:18:28;98717.38;;;27.56;31.33
14902;BME280;7542;49.078;9.194;2023-04-26T05:19:31;98719.00;;;27.57;31.40
14902;BME280;7542;49.078;9.194;2023-04-26T05:20:34;98725.47;;;27.56;31.39
14902;BME280;7542;49.078;9.194;2023-04-26T05:21:39;98722.78;;;27.56;31.30
14902;BME280;7542;49.078;9.194;2023-04-26T05:22:42;98723.06;;;27.54;31.33
14902;BME280;7542;49.078;9.194;2023-04-26T05:23:44;98723.06;;;27.54;31.41
14902;BME280;7542;49.078;9.194;2023-04-26T05:24:47;98727.63;;;27.54;31.38
14902;BME280;7542;49.078;9.194;2023-04-26T05:25:49;98729.25;;;27.55;31.41
14902;BME280;7542;49.078;9.194;2023-04-26T05:26:52;98724.94;;;27.54;31.09
14902;BME280;7542;49.078;9.194;2023-04-26T05:27:54;98732.22;;;27.53;31.35
14902;BME280;7542;49.078;9.194;2023-04-26T05:28:57;98728.72;;;27.53;31.50
14902;BME280;7542;49.078;9.194;2023-04-26T05:30:00;98741.09;;;27.54;31.41
14902;BME280;7542;49.078;9.194;2023-04-26T05:31:03;98741.09;;;27.54;31.20
14902;BME280;7542;49.078;9.194;2023-04-26T05:32:06;98741.09;;;27.54;31.35
14902;BME280;7542;49.078;9.194;2023-04-26T05:33:11;98740.00;;;27.55;31.19
14902;BME280;7542;49.078;9.194;2023-04-26T05:34:15;98746.50;;;27.54;31.32
14902;BME280;7542;49.078;9.194;2023-04-26T05:35:18;98741.38;;;27.52;31.33
14902;BME280;7542;49.078;9.194;2023-04-26T05:36:20;98738.41;;;27.54;31.22
14902;BME280;7542;49.078;9.194;2023-04-26T05:37:23;98744.06;;;27.52;31.38
14902;BME280;7542;49.078;9.194;2023-04-26T05:38:26;98740.28;;;27.53;31.15
14902;BME280;7542;49.078;9.194;2023-04-26T05:39:30;98753.47;;;27.55;31.21